Latest Weather Observations for High Range (Wanganderry)

IDN60801

Issued at 7:03 pm EST Wednesday 12 August 2020 (issued every 10 minutes, with the page automatically refreshed every 10 minutes)

About weather observations | Map of weather stations | Latest weather observations for NSW | Other Formats
Station Details ID: 068262 Name: HIGH RANGE AWS (WANGANDERRY) Lat: -34.33 Lon: 150.27 Height: 813.6 m
Data from the previous 72 hours. | See also: Recent months for locations in New South Wales
Date/Time
EST
Temp
°C
App
Temp
°C
Dew
Point
°C
Rel
Hum
%
Delta-T
°C
Wind Press
QNH
hPa
Press
MSL
hPa
Rain since
9am
mm
Dir  Spd
km/h
Gust
km/h
Spd
kts
Gust
kts
12/07:00pm 8.6 6.5 8.3 98 0.2 NW 9 11 5 6 1013.2 1013.3 0.0
12/06:30pm 9.1 7.2 7.7 91 0.7 NW 7 9 4 5 1012.9 1013.1 0.0
12/06:00pm 9.8 8.2 8.1 89 0.9 NW 6 7 3 4 1012.8 1013.0 0.0
12/05:30pm 9.9 8.8 8.3 90 0.8 NW 4 6 2 3 1012.6 1012.8 0.0
12/05:00pm 10.8 10.1 6.9 77 1.9 CALM 0 2 0 1 1012.4 1012.5 0.0
12/04:30pm 10.7 9.1 7.9 83 1.4 NW 6 7 3 4 1012.4 1012.5 0.0
12/04:00pm 11.0 9.3 7.5 79 1.8 NW 6 9 3 5 1012.2 1012.3 0.0
12/03:30pm 12.0 10.4 6.5 69 2.7 NW 4 7 2 4 1012.2 1012.3 0.0
12/03:00pm 12.2 10.2 6.3 67 2.9 NW 6 7 3 4 1012.3 1012.4 0.0
12/02:30pm 12.6 10.6 6.4 66 3.1 NW 6 9 3 5 1012.4 1012.5 0.0
12/02:00pm 12.7 11.0 6.1 64 3.3 NW 4 6 2 3 1012.5 1012.6 0.0
12/01:30pm 11.7 9.9 5.6 66 3.0 NW 4 6 2 3 1012.8 1013.0 0.0
12/01:00pm 11.6 9.8 5.5 66 3.0 NW 4 6 2 3 1013.1 1013.2 0.0
12/12:30pm 11.4 9.1 5.7 68 2.8 NW 7 9 4 5 1013.7 1013.9 0.0
12/12:00pm 11.5 9.5 6.4 71 2.5 NW 6 7 3 4 1014.2 1014.4 0.0
12/11:30am 10.9 8.6 5.9 71 2.4 NW 7 11 4 6 1014.7 1014.8 0.0
12/11:00am 11.0 8.7 5.7 70 2.6 NW 7 13 4 7 1015.1 1015.3 0.0
12/10:30am 11.9 9.4 6.6 70 2.6 NNW 9 19 5 10 1015.5 1015.7 0.0
12/10:00am 9.5 6.8 5.7 77 1.8 N 9 13 5 7 1015.9 1016.1 0.0
12/09:30am 8.1 5.0 5.7 85 1.1 N 11 13 6 7 1016.0 1016.2 0.0
12/09:00am 7.8 4.3 5.6 86 1.0 N 13 17 7 9 1016.2 1016.4 0.0
12/08:30am 7.5 3.3 5.5 87 0.9 N 17 20 9 11 1016.2 1016.4 0.0
12/08:00am 7.3 2.7 5.4 88 0.9 N 19 20 10 11 1016.1 1016.3 0.0
12/07:30am 7.3 4.0 4.8 84 1.2 N 11 15 6 8 1016.0 1016.2 0.0
12/07:00am 6.2 2.2 4.8 91 0.6 NNE 15 17 8 9 1016.1 1016.3 0.0
12/06:30am 6.3 1.9 4.6 89 0.8 NNE 17 19 9 10 1015.9 1016.1 0.0
12/06:00am 6.3 2.3 4.8 90 0.7 NNE 15 17 8 9 1015.9 1016.1 0.0
12/05:30am 6.3 2.7 5.1 92 0.6 NNE 13 15 7 8 1015.9 1016.1 0.0
12/05:00am 6.5 2.9 5.0 90 0.7 NNE 13 17 7 9 1016.0 1016.2 0.0
12/04:30am 6.8 1.6 5.3 90 0.7 NNE 22 24 12 13 1015.5 1015.7 0.0
12/04:00am 6.7 2.0 5.3 91 0.6 NNE 19 24 10 13 1015.9 1016.1 0.0
12/03:30am 6.6 2.3 5.2 91 0.6 N 17 22 9 12 1015.8 1015.9 0.0
12/03:00am 6.6 2.8 5.9 95 0.3 NNE 15 20 8 11 1016.1 1016.3 0.0
12/02:30am 6.0 2.6 6.0 100 0.0 NNE 13 15 7 8 1016.4 1016.6 0.0
12/02:00am 5.8 2.4 5.8 100 0.0 NNE 13 15 7 8 1016.7 1016.9 0.0
12/01:30am 6.3 2.6 6.3 100 0.0 N 15 19 8 10 1017.1 1017.3 0.0
12/01:00am 5.8 1.6 5.8 100 0.0 NNE 17 19 9 10 1017.1 1017.3 0.0
12/12:30am 6.3 2.2 6.3 100 0.0 NNE 17 22 9 12 1017.2 1017.4 0.0
12/12:00am 6.3 1.3 6.3 100 0.0 NNE 22 28 12 15 1017.2 1017.4 0.0
 
Date/Time
EST
Temp
°C
App
Temp
°C
Dew
Point
°C
Rel
Hum
%
Delta-T
°C
Wind Press
QNH
hPa
Press
MSL
hPa
Rain since
9am
mm
Dir  Spd
km/h
Gust
km/h
Spd
kts
Gust
kts
11/11:30pm 6.2 1.1 6.2 100 0.0 NNE 22 28 12 15 1017.5 1017.7 0.0
11/11:00pm 6.1 1.0 6.1 100 0.0 NNE 22 26 12 14 1017.4 1017.6 0.0
11/10:30pm 6.0 1.5 6.0 100 0.0 NNE 19 20 10 11 1017.6 1017.8 0.0
11/10:00pm 5.6 1.0 5.6 100 0.0 NNE 19 20 10 11 1017.6 1017.8 0.0
11/09:30pm 6.0 1.7 5.3 95 0.3 NE 17 20 9 11 1017.6 1017.8 0.0
11/09:00pm 6.5 1.7 4.8 89 0.8 NNE 19 20 10 11 1018.1 1018.4 0.0
11/08:30pm 7.1 2.8 5.4 89 0.8 N 17 20 9 11 1018.8 1019.0 0.0
11/08:00pm 6.2 2.9 4.8 91 0.6 NNE 11 13 6 7 1018.6 1018.8 0.0
11/07:30pm 6.1 2.9 4.9 92 0.5 NNE 11 15 6 8 1018.6 1018.8 0.0
11/07:00pm 6.6 3.1 5.6 93 0.5 NNE 13 17 7 9 1018.2 1018.5 0.0
11/06:30pm 6.6 3.4 4.9 89 0.8 NNE 11 15 6 8 1018.0 1018.3 0.0
11/06:00pm 7.4 3.8 5.0 85 1.1 NNE 13 15 7 8 1017.8 1018.0 0.0
11/05:30pm 7.4 4.5 4.7 83 1.2 NNE 9 11 5 6 1017.8 1018.0 0.0
11/05:00pm 8.3 5.1 5.1 80 1.5 NNE 11 13 6 7 1017.5 1017.7 0.0
11/04:30pm 9.0 4.6 5.0 76 1.9 NNE 17 20 9 11 1017.3 1017.5 0.0
11/04:00pm 9.6 6.0 5.0 73 2.2 NE 13 17 7 9 1017.5 1017.7 0.0
11/03:30pm 9.9 6.6 4.7 70 2.4 NE 11 15 6 8 1017.6 1017.8 0.0
11/03:00pm 9.7 6.4 4.3 69 2.5 N 11 19 6 10 1017.9 1018.2 0.0
11/02:30pm 9.8 6.2 5.2 73 2.2 N 13 17 7 9 1017.9 1018.2 0.0
11/02:00pm 9.9 7.0 6.3 78 1.8 N 11 17 6 9 1018.0 1018.3 0.0
11/01:30pm 9.1 5.6 5.3 77 1.8 N 13 19 7 10 1018.2 1018.5 0.0
11/01:00pm 9.0 6.0 5.9 81 1.5 N 11 19 6 10 1018.7 1018.9 0.0
11/12:30pm 9.1 5.0 6.2 82 1.4 NNE 17 26 9 14 1018.9 1019.1 0.0
11/12:00pm 8.2 3.6 5.5 83 1.3 NNE 19 26 10 14 1019.7 1019.9 0.0
11/11:30am 8.4 5.0 5.9 84 1.2 N 13 19 7 10 1020.2 1020.5 0.0
11/11:00am 7.9 4.1 5.7 86 1.0 N 15 22 8 12 1020.7 1021.0 0.0
11/10:30am 7.8 3.7 7.8 100 0.0 NE 19 26 10 14 1020.8 1021.1 0.0
11/10:00am 7.4 3.2 7.4 100 0.0 NE 19 22 10 12 1021.0 1021.2 0.0
11/09:30am 6.8 3.2 6.8 100 0.0 NE 15 17 8 9 1020.7 1021.0 0.0
11/09:00am 6.0 3.4 6.0 100 0.0 NW 9 11 5 6 1020.8 1021.1 1.2
11/08:30am 5.4 3.0 5.4 100 0.0 S 7 9 4 5 1021.1 1021.4 1.2
11/08:00am 5.1 2.9 5.1 100 0.0 SW 6 9 3 5 1020.8 1021.1 1.2
11/07:30am 4.7 2.8 4.7 100 0.0 SW 4 6 2 3 1021.0 1021.2 1.2
11/07:00am 4.3 1.9 4.3 100 0.0 SW 6 6 3 3 1020.8 1021.1 1.2
11/06:30am 4.3 1.7 4.3 100 0.0 SW 7 11 4 6 1020.8 1021.1 1.2
11/06:00am 4.1 1.1 4.1 100 0.0 SW 9 11 5 6 1020.7 1021.0 1.2
11/05:30am 3.5 0.4 3.5 100 0.0 SSW 9 13 5 7 1020.4 1020.7 1.2
11/05:00am 3.8 0.4 3.8 100 0.0 SSW 11 13 6 7 1020.2 1020.5 1.2
11/04:30am 3.9 0.5 3.9 100 0.0 SW 11 15 6 8 1020.2 1020.5 1.2
11/04:00am 4.2 0.5 4.2 100 0.0 WSW 13 15 7 8 1020.3 1020.6 1.2
11/03:30am 4.3 0.2 4.3 100 0.0 WSW 15 19 8 10 1020.5 1020.8 1.2
11/03:00am 4.4 0.3 4.4 100 0.0 WSW 15 17 8 9 1020.6 1020.9 1.2
11/02:30am 4.5 0.4 4.5 100 0.0 WSW 15 17 8 9 1020.6 1020.9 1.2
11/02:00am 4.5 0.8 4.5 100 0.0 SW 13 15 7 8 1020.5 1020.8 1.2
11/01:30am 4.6 0.9 4.6 100 0.0 WSW 13 17 7 9 1020.8 1021.1 1.2
11/01:00am 4.7 1.0 4.7 100 0.0 SW 13 17 7 9 1020.8 1021.1 1.0
11/12:30am 4.8 0.8 4.8 100 0.0 SW 15 17 8 9 1020.5 1020.8 1.0
11/12:00am 4.8 0.8 4.8 100 0.0 SSW 15 17 8 9 1020.6 1020.9 1.0
 
Date/Time
EST
Temp
°C
App
Temp
°C
Dew
Point
°C
Rel
Hum
%
Delta-T
°C
Wind Press
QNH
hPa
Press
MSL
hPa
Rain since
9am
mm
Dir  Spd
km/h
Gust
km/h
Spd
kts
Gust
kts
10/11:30pm 4.9 1.7 4.9 100 0.0 SW 11 13 6 7 1020.7 1021.0 0.8
10/11:00pm 4.8 0.8 4.8 100 0.0 SW 15 17 8 9 1020.7 1021.0 0.8
10/10:30pm 4.7 1.0 4.7 100 0.0 SSW 13 17 7 9 1020.6 1020.9 0.8
10/10:00pm 4.7 0.3 4.7 100 0.0 SSW 17 20 9 11 1020.7 1021.0 0.8
10/09:30pm 4.8 0.8 4.8 100 0.0 SW 15 20 8 11 1020.7 1021.0 0.6
10/09:00pm 5.0 1.0 5.0 100 0.0 SW 15 19 8 10 1021.1 1021.4 0.6
10/08:30pm 5.1 1.1 5.1 100 0.0 SW 15 17 8 9 1021.3 1021.6 0.6
10/08:00pm 5.1 -0.2 5.1 100 0.0 SSW 22 28 12 15 1021.0 1021.2 0.6
10/07:30pm 5.5 0.9 5.5 100 0.0 S 19 24 10 13 1020.6 1020.9 0.6
10/07:00pm 5.6 1.4 5.5 99 0.0 S 17 28 9 15 1020.4 1020.7 0.6
10/06:30pm 5.5 1.2 5.4 99 0.0 S 17 24 9 13 1020.2 1020.5 0.6
10/06:00pm 5.3 2.5 5.3 100 0.0 S 9 15 5 8 1020.3 1020.6 0.6
10/05:30pm 5.5 1.1 4.8 95 0.3 SSE 17 30 9 16 1019.8 1020.0 0.6
10/05:00pm 6.1 -0.6 5.4 95 0.3 S 30 41 16 22 1019.3 1019.6 0.6
10/04:30pm 6.2 -0.8 6.2 100 0.0 S 32 39 17 21 1019.1 1019.4 0.6
10/04:16pm 6.4 -0.1 6.4 100 0.0 S 30 48 16 26 1018.8 1019.0 0.6
10/04:00pm 6.8 0.2 5.9 94 0.4 S 30 43 16 23 1018.7 1018.9 0.6
10/03:30pm 6.4 -0.1 6.4 100 0.0 S 30 41 16 22 1018.7 1018.9 0.6
10/03:00pm 6.6 -0.8 6.6 100 0.0 S 35 52 19 28 1018.5 1018.7 0.6
10/02:30pm 7.0 0.2 7.0 100 0.0 S 32 44 17 24 1018.5 1018.7 0.4
10/02:00pm 7.1 -1.7 7.1 100 0.0 S 43 56 23 30 1018.2 1018.5 0.4
10/01:49pm 7.3 -0.7 7.3 100 0.0 S 39 59 21 32 1018.1 1018.4 0.4
10/01:30pm 7.6 1.0 7.6 100 0.0 SSE 32 44 17 24 1018.5 1018.7 0.4
10/01:00pm 6.6 -2.0 6.6 100 0.0 S 41 50 22 27 1018.4 1018.6 0.4
10/12:30pm 6.9 -0.1 6.9 100 0.0 S 33 44 18 24 1018.4 1018.6 0.2
10/12:00pm 6.9 -0.8 6.9 100 0.0 S 37 52 20 28 1018.7 1018.9 0.2
10/11:30am 7.9 -0.3 6.7 92 0.6 S 39 54 21 29 1018.6 1018.8 0.0
10/11:11am 7.5 0.0 6.4 93 0.5 S 35 56 19 30 1018.2 1018.5 0.0
10/11:00am 7.6 -0.4 7.3 98 0.1 S 39 52 21 28 1018.4 1018.6 0.0
10/10:35am 6.8 -2.3 6.8 100 0.0 S 44 63 24 34 1018.1 1018.4 0.0
10/10:30am 6.9 -2.6 6.9 100 0.0 S 46 63 25 34 1018.0 1018.3 0.0
10/10:00am 8.2 -0.8 6.5 89 0.8 S 43 61 23 33 1017.5 1017.7 0.0
10/09:49am 8.0 1.0 6.8 92 0.6 S 33 57 18 31 1017.6 1017.8 0.0
10/09:30am 7.6 -0.3 6.1 90 0.7 S 37 50 20 27 1017.7 1017.9 0.0
10/09:00am 7.1 -0.6 7.1 100 0.0 S 37 50 20 27 1017.1 1017.3 37.8
10/08:44am 6.8 0.7 6.8 100 0.0 S 28 48 15 26 1017.2 1017.4 37.8
10/08:30am 6.2 -0.8 6.2 100 0.0 S 32 43 17 23 1017.1 1017.3 37.8
10/08:00am 6.0 -1.6 6.0 100 0.0 S 35 50 19 27 1016.4 1016.6 37.8
10/07:30am 6.3 -1.2 6.3 100 0.0 S 35 46 19 25 1015.9 1016.1 37.6
10/07:20am 6.3 -1.2 6.3 100 0.0 S 35 54 19 29 1015.7 1015.8 37.6
10/07:00am 6.1 -1.8 6.1 100 0.0 S 37 54 20 29 1015.2 1015.4 37.6
10/06:30am 6.0 -3.1 6.0 100 0.0 S 43 52 23 28 1014.8 1015.0 37.4
10/06:01am 6.3 -2.9 6.3 100 0.0 S 44 63 24 34 1014.2 1014.4 37.0
10/06:00am 6.3 -2.9 6.3 100 0.0 S 44 59 24 32 1014.1 1014.3 37.0
10/05:30am 6.5 -1.7 6.5 100 0.0 S 39 54 21 29 1013.9 1014.1 36.4
10/05:04am 6.7 -1.5 6.7 100 0.0 S 39 57 21 31 1013.5 1013.6 36.2
10/05:00am 6.7 -1.5 6.7 100 0.0 S 39 56 21 30 1013.5 1013.6 36.2
10/04:30am 6.8 -1.7 6.8 100 0.0 SSE 41 56 22 30 1012.9 1013.1 35.6
10/04:00am 6.9 -0.5 6.9 100 0.0 SSE 35 48 19 26 1012.6 1012.8 35.4
10/03:45am 6.7 -1.5 6.7 100 0.0 S 39 57 21 31 1012.4 1012.5 34.6
10/03:30am 6.8 -1.3 6.8 100 0.0 S 39 52 21 28 1012.0 1012.1 34.0
10/03:07am 6.9 -2.6 6.9 100 0.0 S 46 74 25 40 1011.8 1011.9 33.6
10/03:00am 7.1 -1.7 7.1 100 0.0 SSE 43 57 23 31 1011.9 1012.0 33.2
10/02:30am 7.0 -0.3 7.0 100 0.0 SSE 35 54 19 29 1011.8 1011.9 33.0
10/02:00am 7.1 -1.4 7.1 100 0.0 SSE 41 63 22 34 1011.5 1011.7 33.0
10/01:30am 7.0 -0.7 7.0 100 0.0 SSE 37 57 20 31 1011.4 1011.5 31.6
10/01:15am 7.2 0.5 7.2 100 0.0 SSE 32 56 17 30 1011.4 1011.5 31.0
10/01:00am 7.2 -0.1 7.2 100 0.0 SSE 35 48 19 26 1011.4 1011.5 30.4
10/12:34am 7.2 -1.6 7.2 100 0.0 SSE 43 61 23 33 1010.8 1010.9 30.0
10/12:30am 7.2 -1.6 7.2 100 0.0 SSE 43 57 23 31 1010.7 1010.8 29.8
10/12:12am 7.1 -2.3 7.1 100 0.0 SSE 46 65 25 35 1010.5 1010.5 29.4
10/12:00am 7.1 -2.7 7.1 100 0.0 SSE 48 65 26 35 1010.3 1010.4 29.4
 
Date/Time
EST
Temp
°C
App
Temp
°C
Dew
Point
°C
Rel
Hum
%
Delta-T
°C
Wind Press
QNH
hPa
Press
MSL
hPa
Rain since
9am
mm
Dir  Spd
km/h
Gust
km/h
Spd
kts
Gust
kts
09/11:40pm 7.3 -1.7 7.3 100 0.0 SSE 44 63 24 34 1010.5 1010.5 29.2
09/11:30pm 7.0 -2.4 7.0 100 0.0 SSE 46 59 25 32 1010.5 1010.5 29.0
09/11:00pm 7.0 -2.1 7.0 100 0.0 S 44 63 24 34 1010.2 1010.3 28.2
09/10:31pm 7.3 -0.7 7.3 100 0.0 S 39 63 21 34 1010.0 1010.1 26.6
09/10:30pm 7.2 -0.5 7.2 100 0.0 S 37 50 20 27 1010.1 1010.2 26.6
09/10:00pm 7.3 0.4 7.3 100 0.0 SSE 33 50 18 27 1010.0 1010.1 24.8
09/09:32pm 7.3 0.0 7.3 100 0.0 SSE 35 56 19 30 1010.1 1010.2 24.4
09/09:30pm 7.4 -0.2 7.4 100 0.0 SSE 37 56 20 30 1010.0 1010.1 24.4
09/09:00pm 7.4 -0.2 7.4 100 0.0 SSE 37 67 20 36 1009.4 1009.4 24.4
09/08:30pm 7.4 -2.3 7.4 100 0.0 S 48 70 26 38 1008.8 1008.9 23.6
09/08:00pm 7.0 -1.5 7.0 100 0.0 S 41 59 22 32 1008.4 1008.5 22.8
09/07:30pm 6.4 -2.8 6.4 100 0.0 S 44 67 24 36 1008.4 1008.5 22.2
09/07:02pm 5.9 -5.3 5.9 100 0.0 S 54 72 29 39 1007.8 1007.8 20.6

Other formats

Comma delimited format used in spreadsheet applications
http://www.bom.gov.au/fwo/IDN60801/IDN60801.99742.axf

JavaScript Object Notation format (JSON) in row-major order
http://www.bom.gov.au/fwo/IDN60801/IDN60801.99742.json

Data quality

Most of these data are generated automatically and are frequently updated. Quality checks on data are not normally performed. It is possible for incorrect values to appear. Refer to information at About Latest Weather Observations and please check the disclaimer before using these data.